Portada
METAR-TAF:

METAR-TAF

Aeroports :

Port Sudan, Sudan

latitud: 19-26N, longitud: 037-14E, altitud: 138 m

METAR: manca

Hora: 10:15 (08:15 UTC)

Pronòstic

L'informe es va fer fa 3 hores i 15 minuts, a les 05:00 UTC
Pronòstic vàlid del 08 a les 06 UTC al 09 a les 12 UTC
Vent 8 kt del Nord-Oest
Visibilitat 10 km o més
Escasses núvols a una alçada de 3000 ft
Núvols disperses a una alçada de 13000 ft
Evolucionant progressivament
l' 08 a les 10 UTC al 08 a les 12 UTC
Vent 12 kt del Nord-Est amb ràfegues de 22 kt

TAF: HSPN 080500Z 0806/0912 32008KT 9999 FEW030 SCT130 BECMG 0810/0812 05012G22KT

Observacions i pronòstics meteorològics de més de 4000 aeroports (METAR i TAF).

Les estacions disponibles són els punts grocs i vermells al mapa.

Posi el ratolí al punt desitjat per veure el nom de l'estació.

Feu clic per veure les observacions i els pronòstics meteorològics.

Per canviar el mapa: feu clic els botons verds amb una creu de color negre per apropar; al botó verd amb un guió per allunyar la imatge; o en les fletxes verdes per a mapes adjacents.


METAR-TAF: